Terminal Aerodrome Forecast
Issued by NWS

Home | Current Version | Previous Version | Text Only | Print | Product List | Glossary On
Versions: 1 2 3 4 5 6 7 8 9 10 11 12 13 14 15 16 17 18 19
583
FTUS41 KGYX 302329
TAFHIE
TAF
KHIE 302329Z 3100/3124 26008KT P6SM SCT080 BKN250
     FM310700 18002KT 4SM BR SKC
     FM311200 26005KT P6SM SKC
     FM311600 28010KT P6SM SCT150=

USA.gov is the U.S. government's official web portal to all federal, state and local government web resources and services.